createdAt,value
2018-07-28T00:00:15.973Z,6.10
2018-07-28T00:02:43.167Z,5.20
2018-07-28T00:05:11.215Z,5.50
2018-07-28T00:07:38.488Z,5.17
2018-07-28T00:10:10.844Z,6.07
2018-07-28T00:12:38.118Z,6.00
2018-07-28T00:15:15.112Z,6.40
2018-07-28T00:17:43.034Z,6.50
2018-07-28T00:20:11.486Z,6.20
2018-07-28T00:22:38.868Z,5.27
2018-07-28T00:25:07.570Z,5.07
2018-07-28T00:27:34.893Z,5.97
2018-07-28T00:30:02.127Z,5.57
2018-07-28T00:32:29.436Z,6.80
2018-07-28T00:35:00.708Z,6.10
2018-07-28T00:37:27.871Z,6.33
2018-07-28T00:39:55.129Z,6.30
2018-07-28T00:42:22.353Z,6.97
2018-07-28T00:44:49.591Z,5.63
2018-07-28T00:47:16.843Z,6.50
2018-07-28T00:49:44.122Z,6.57
2018-07-28T00:52:11.382Z,6.77
2018-07-28T00:54:38.818Z,8.50
2018-07-28T00:57:05.994Z,6.80
2018-07-28T00:59:33.311Z,6.43
2018-07-28T01:02:00.537Z,5.90
2018-07-28T01:04:27.816Z,5.90
2018-07-28T01:06:55.041Z,6.13
2018-07-28T01:09:22.262Z,5.83
2018-07-28T01:11:49.571Z,6.10
2018-07-28T01:14:16.825Z,5.93
2018-07-28T01:16:44.082Z,6.13
2018-07-28T01:19:11.347Z,6.20
2018-07-28T01:21:38.575Z,6.00
2018-07-28T01:24:06.378Z,6.07
2018-07-28T01:26:33.657Z,5.70
2018-07-28T01:29:06.574Z,5.80
2018-07-28T01:31:33.833Z,5.17
2018-07-28T01:34:01.147Z,6.10
2018-07-28T01:36:28.348Z,6.13
2018-07-28T01:38:55.629Z,6.10
2018-07-28T01:41:22.851Z,5.90
2018-07-28T01:43:50.150Z,6.03
2018-07-28T01:46:17.366Z,6.03
2018-07-28T01:48:44.674Z,6.23
2018-07-28T01:51:11.898Z,6.20
2018-07-28T01:53:39.087Z,6.17
2018-07-28T01:56:06.516Z,5.47
2018-07-28T01:58:33.689Z,5.93
2018-07-28T02:01:00.962Z,6.90
2018-07-28T02:03:28.173Z,6.30
2018-07-28T02:05:55.432Z,7.00
2018-07-28T02:08:22.713Z,7.33
2018-07-28T02:10:49.979Z,6.40
2018-07-28T02:13:17.275Z,6.37
2018-07-28T02:15:44.548Z,5.97
2018-07-28T02:18:11.794Z,6.40
2018-07-28T02:20:39.112Z,6.60
2018-07-28T02:23:06.327Z,6.20
2018-07-28T02:25:33.540Z,6.23
2018-07-28T02:28:00.781Z,6.17
2018-07-28T02:30:28.180Z,6.90
2018-07-28T02:32:55.372Z,7.17
2018-07-28T02:35:22.617Z,6.80
2018-07-28T02:37:50.176Z,7.53
2018-07-28T02:40:17.404Z,7.80
2018-07-28T02:42:44.715Z,7.10
2018-07-28T02:45:11.901Z,6.70
2018-07-28T02:47:39.127Z,9.50
2018-07-28T02:50:06.807Z,7.83
2018-07-28T02:52:34.055Z,7.80
2018-07-28T02:55:01.270Z,6.83
2018-07-28T02:57:28.503Z,7.53
2018-07-28T02:59:55.740Z,7.73
2018-07-28T03:02:22.972Z,7.00
2018-07-28T03:04:50.212Z,6.47
2018-07-28T03:07:17.486Z,6.77
2018-07-28T03:09:44.712Z,7.67
2018-07-28T03:12:12.145Z,7.10
2018-07-28T03:14:39.438Z,7.03
2018-07-28T03:17:06.752Z,6.80
2018-07-28T03:19:34.001Z,6.90
2018-07-28T03:22:01.207Z,6.50
2018-07-28T03:24:28.472Z,6.63
2018-07-28T03:26:55.720Z,6.30
2018-07-28T03:29:22.938Z,5.97
2018-07-28T03:31:53.618Z,6.20
2018-07-28T03:34:20.878Z,6.50
2018-07-28T03:36:51.189Z,5.90
2018-07-28T03:39:18.399Z,6.47
2018-07-28T03:41:45.760Z,6.53
2018-07-28T03:44:12.982Z,5.60
2018-07-28T03:46:40.309Z,5.80
2018-07-28T03:49:07.553Z,5.83
2018-07-28T03:51:34.721Z,5.97
2018-07-28T03:54:01.934Z,6.10
2018-07-28T03:56:29.147Z,5.00
2018-07-28T03:58:56.396Z,6.70
2018-07-28T04:01:23.617Z,5.13
2018-07-28T04:03:50.852Z,5.80
2018-07-28T04:06:18.088Z,6.20
2018-07-28T04:08:45.517Z,5.23
2018-07-28T04:11:12.708Z,6.03
2018-07-28T04:13:39.921Z,6.50
2018-07-28T04:16:07.084Z,6.07
2018-07-28T04:18:34.444Z,6.73
2018-07-28T04:21:01.655Z,6.33
2018-07-28T04:23:28.881Z,6.10
2018-07-28T04:25:56.086Z,7.10
2018-07-28T04:28:23.265Z,7.00
2018-07-28T04:30:50.481Z,6.43
2018-07-28T04:33:17.631Z,6.60
2018-07-28T04:35:44.860Z,6.30
2018-07-28T04:38:12.033Z,6.60
2018-07-28T04:40:39.311Z,6.53
2018-07-28T04:43:06.542Z,6.60
2018-07-28T04:45:33.887Z,5.77
2018-07-28T04:48:01.059Z,5.27
2018-07-28T04:50:28.306Z,4.83
2018-07-28T04:52:55.503Z,5.10
2018-07-28T04:55:22.765Z,5.50
2018-07-28T04:57:49.952Z,5.70
2018-07-28T05:00:17.221Z,5.97
2018-07-28T05:02:44.462Z,5.67
2018-07-28T05:05:11.635Z,5.20
2018-07-28T05:07:39.014Z,5.17
2018-07-28T05:10:06.183Z,5.70
2018-07-28T05:12:33.361Z,6.93
2018-07-28T05:15:00.922Z,5.67
2018-07-28T05:17:28.203Z,6.00
2018-07-28T05:19:55.396Z,6.00
2018-07-28T05:22:22.692Z,8.53
2018-07-28T05:24:49.992Z,6.07
2018-07-28T05:27:17.188Z,6.60
2018-07-28T05:29:44.388Z,6.90
2018-07-28T05:32:11.723Z,6.40
2018-07-28T05:34:38.962Z,5.70
2018-07-28T05:37:06.167Z,5.80
2018-07-28T05:39:33.378Z,5.63
2018-07-28T05:42:01.036Z,5.73
2018-07-28T05:44:28.287Z,6.13
2018-07-28T05:46:55.503Z,5.30
2018-07-28T05:49:22.679Z,4.43
2018-07-28T05:51:49.881Z,5.90
2018-07-28T05:54:17.132Z,5.30
2018-07-28T05:56:44.358Z,6.27
2018-07-28T05:59:11.635Z,6.50
2018-07-28T06:01:38.913Z,6.77
2018-07-28T06:04:06.214Z,6.77
2018-07-28T06:06:33.545Z,6.70
2018-07-28T06:09:00.703Z,6.20
2018-07-28T06:11:28.001Z,5.57
2018-07-28T06:13:55.235Z,5.77
2018-07-28T06:16:22.627Z,5.10
2018-07-28T06:18:49.908Z,5.47
2018-07-28T06:21:17.251Z,5.43
2018-07-28T06:23:44.436Z,5.20
2018-07-28T06:26:11.725Z,5.43
2018-07-28T06:28:38.912Z,5.30
2018-07-28T06:31:06.293Z,5.00
2018-07-28T06:33:33.480Z,10.80
2018-07-28T06:36:01.601Z,7.30
2018-07-28T06:38:28.788Z,5.53
2018-07-28T06:40:56.019Z,6.93
2018-07-28T06:43:23.349Z,5.33
2018-07-28T06:45:50.582Z,5.00
2018-07-28T06:48:17.812Z,6.63
2018-07-28T06:50:44.998Z,5.67
2018-07-28T06:53:12.305Z,5.43
2018-07-28T06:55:39.605Z,5.43
2018-07-28T06:58:06.866Z,5.77
2018-07-28T07:00:34.241Z,5.40
2018-07-28T07:03:01.564Z,5.33
2018-07-28T07:05:28.789Z,6.33
2018-07-28T07:07:55.936Z,7.00
2018-07-28T07:10:23.543Z,6.80
2018-07-28T07:12:50.834Z,6.70
2018-07-28T07:15:18.008Z,6.37
2018-07-28T07:17:45.275Z,5.47
2018-07-28T07:20:12.541Z,6.47
2018-07-28T07:22:39.794Z,6.33
2018-07-28T07:25:07.198Z,7.20
2018-07-28T07:27:34.374Z,6.30
2018-07-28T07:30:01.675Z,6.00
2018-07-28T07:32:29.046Z,6.03
2018-07-28T07:34:56.457Z,5.93
2018-07-28T07:37:23.705Z,5.10
2018-07-28T07:39:50.953Z,4.93
2018-07-28T07:42:18.195Z,6.37
2018-07-28T07:44:45.492Z,4.83
2018-07-28T07:47:12.910Z,5.77
2018-07-28T07:49:40.170Z,6.67
2018-07-28T07:52:07.439Z,5.00
2018-07-28T07:54:44.563Z,5.07
2018-07-28T07:57:23.201Z,5.77
2018-07-28T07:59:50.819Z,4.57
2018-07-28T08:02:18.076Z,5.10
2018-07-28T08:04:45.245Z,6.33
2018-07-28T08:07:12.537Z,6.03
2018-07-28T08:09:39.765Z,5.90
2018-07-28T08:12:07.209Z,5.50
2018-07-28T08:14:34.434Z,6.10
2018-07-28T08:17:04.101Z,6.10
2018-07-28T08:19:31.335Z,5.70
2018-07-28T08:21:58.591Z,5.90
2018-07-28T08:24:25.791Z,5.10
2018-07-28T08:26:53.298Z,5.53
2018-07-28T08:29:20.381Z,5.80
2018-07-28T08:31:47.578Z,5.67
2018-07-28T08:34:14.799Z,5.73
2018-07-28T08:36:42.207Z,5.90
2018-07-28T08:39:11.804Z,5.70
2018-07-28T08:41:39.426Z,5.30
2018-07-28T08:44:06.694Z,5.23
2018-07-28T08:46:34.018Z,5.83
2018-07-28T08:49:01.270Z,5.23
2018-07-28T08:51:28.575Z,5.33
2018-07-28T08:53:55.813Z,4.90
2018-07-28T08:56:23.078Z,4.87
2018-07-28T08:58:50.320Z,4.63
2018-07-28T09:01:17.536Z,4.63
2018-07-28T09:03:44.719Z,4.33
2018-07-28T09:06:11.978Z,4.60
2018-07-28T09:08:39.167Z,5.33
2018-07-28T09:11:06.531Z,6.77
2018-07-28T09:13:33.764Z,4.83
2018-07-28T09:16:00.898Z,5.30
2018-07-28T09:18:28.166Z,5.63
2018-07-28T09:20:55.378Z,5.20
2018-07-28T09:23:22.637Z,5.37
2018-07-28T09:25:49.835Z,4.80
2018-07-28T09:28:17.025Z,5.70
2018-07-28T09:30:44.387Z,5.20
2018-07-28T09:33:11.706Z,6.03
2018-07-28T09:35:38.987Z,5.20
2018-07-28T09:38:06.454Z,5.10
2018-07-28T09:40:33.769Z,5.00
2018-07-28T09:43:01.029Z,5.27
2018-07-28T09:45:28.250Z,5.27
2018-07-28T09:47:55.515Z,5.40
2018-07-28T09:50:22.745Z,4.70
2018-07-28T09:52:49.929Z,4.17
2018-07-28T09:55:17.161Z,4.73
2018-07-28T09:57:44.353Z,4.07
2018-07-28T10:00:15.592Z,4.90
2018-07-28T10:02:42.877Z,4.63
2018-07-28T10:05:10.138Z,4.87
2018-07-28T10:07:37.409Z,3.87
2018-07-28T10:10:04.699Z,3.87
2018-07-28T10:12:31.915Z,3.27
2018-07-28T10:14:59.399Z,4.20
2018-07-28T10:17:26.560Z,4.10
2018-07-28T10:19:53.787Z,3.23
2018-07-28T10:22:21.040Z,4.00
2018-07-28T10:24:48.293Z,3.50
2018-07-28T10:27:15.499Z,4.60
2018-07-28T10:29:42.656Z,4.67
2018-07-28T10:32:10.017Z,3.23
2018-07-28T10:34:37.264Z,4.00
2018-07-28T10:37:04.925Z,3.60
2018-07-28T10:39:32.128Z,4.20
2018-07-28T10:41:59.430Z,3.70
2018-07-28T10:44:26.636Z,4.00
2018-07-28T10:46:53.874Z,3.50
2018-07-28T10:49:21.064Z,3.30
2018-07-28T10:51:48.224Z,3.83
2018-07-28T10:54:15.465Z,4.33
2018-07-28T10:56:42.837Z,2.83
2018-07-28T10:59:10.092Z,3.97
2018-07-28T11:01:37.288Z,3.40
2018-07-28T11:04:04.812Z,4.50
2018-07-28T11:06:32.084Z,4.90
2018-07-28T11:08:59.433Z,4.00
2018-07-28T11:11:26.672Z,4.20
2018-07-28T11:13:53.940Z,3.83
2018-07-28T11:16:21.209Z,3.20
2018-07-28T11:18:48.560Z,3.60
2018-07-28T11:21:15.718Z,3.30
2018-07-28T11:24:00.917Z,4.20
2018-07-28T11:26:28.149Z,3.60
2018-07-28T11:28:55.387Z,4.17
2018-07-28T11:31:34.907Z,4.20
2018-07-28T11:34:13.811Z,3.23
2018-07-28T11:36:52.985Z,3.53
2018-07-28T11:39:31.783Z,3.43
2018-07-28T11:42:10.520Z,3.67
2018-07-28T11:44:48.846Z,4.67
2018-07-28T11:47:16.096Z,5.33
2018-07-28T11:49:43.519Z,4.10
2018-07-28T11:52:10.778Z,4.20
2018-07-28T11:54:38.145Z,4.23
2018-07-28T11:57:05.516Z,5.00
2018-07-28T11:59:32.979Z,3.60
2018-07-28T12:02:00.431Z,4.80
2018-07-28T12:04:27.650Z,4.40
2018-07-28T12:06:55.171Z,4.43
2018-07-28T12:09:22.396Z,5.13
2018-07-28T12:11:49.868Z,4.70
2018-07-28T12:14:17.158Z,4.70
2018-07-28T12:16:44.350Z,4.40
2018-07-28T12:19:11.716Z,5.27
2018-07-28T12:21:38.884Z,6.10
2018-07-28T12:24:06.400Z,6.07
2018-07-28T12:26:33.665Z,8.10
2018-07-28T12:29:00.814Z,6.53
2018-07-28T12:31:28.124Z,9.97
2018-07-28T12:33:55.389Z,11.50
2018-07-28T12:36:22.657Z,8.90
2018-07-28T12:38:49.945Z,7.20
2018-07-28T12:41:17.166Z,6.80
2018-07-28T12:43:44.328Z,7.73
2018-07-28T12:46:11.654Z,7.20
2018-07-28T12:48:38.878Z,7.07
2018-07-28T12:51:06.181Z,6.73
2018-07-28T12:53:33.445Z,6.90
2018-07-28T12:56:00.615Z,6.20
2018-07-28T12:58:27.834Z,7.77
2018-07-28T13:00:55.079Z,6.13
2018-07-28T13:03:22.267Z,6.13
2018-07-28T13:05:49.442Z,6.07
2018-07-28T13:08:16.668Z,4.93
2018-07-28T13:10:43.879Z,5.70
2018-07-28T13:13:11.173Z,9.87
2018-07-28T13:15:38.370Z,6.13
2018-07-28T13:18:05.626Z,4.60
2018-07-28T13:20:32.858Z,5.03
2018-07-28T13:23:00.136Z,4.80
2018-07-28T13:25:27.392Z,5.50
2018-07-28T13:27:54.600Z,4.50
2018-07-28T13:30:21.800Z,4.60
2018-07-28T13:32:50.629Z,4.83
2018-07-28T13:35:20.691Z,5.30
2018-07-28T13:37:47.996Z,4.63
2018-07-28T13:40:15.234Z,4.10
2018-07-28T13:42:42.516Z,4.40
2018-07-28T13:45:09.772Z,4.87
2018-07-28T13:47:36.993Z,4.47
2018-07-28T13:50:04.193Z,4.97
2018-07-28T13:52:31.389Z,4.10
2018-07-28T13:54:58.600Z,4.67
2018-07-28T13:57:25.823Z,4.70
2018-07-28T13:59:53.194Z,4.73
2018-07-28T14:02:20.483Z,5.27
2018-07-28T14:04:47.742Z,4.57
2018-07-28T14:07:15.074Z,4.53
2018-07-28T14:09:42.310Z,4.50
2018-07-28T14:12:09.748Z,5.40
2018-07-28T14:14:36.923Z,5.20
2018-07-28T14:17:04.252Z,5.50
2018-07-28T14:19:31.578Z,4.47
2018-07-28T14:21:58.816Z,5.13
2018-07-28T14:24:25.998Z,4.77
2018-07-28T14:26:53.275Z,5.70
2018-07-28T14:29:20.550Z,5.60
2018-07-28T14:31:47.942Z,5.23
2018-07-28T14:34:15.241Z,5.57
2018-07-28T14:36:42.441Z,5.20
2018-07-28T14:39:09.730Z,5.10
2018-07-28T14:41:37.159Z,5.87
2018-07-28T14:44:04.637Z,5.20
2018-07-28T14:46:31.890Z,5.63
2018-07-28T14:48:59.100Z,5.10
2018-07-28T14:51:26.318Z,5.67
2018-07-28T14:53:53.541Z,4.83
2018-07-28T14:56:20.817Z,5.20
2018-07-28T14:58:50.334Z,4.90
2018-07-28T15:01:17.555Z,5.17
2018-07-28T15:03:44.791Z,5.20
2018-07-28T15:06:11.970Z,5.77
2018-07-28T15:08:39.297Z,5.37
2018-07-28T15:11:06.594Z,5.17
2018-07-28T15:13:33.808Z,5.80
2018-07-28T15:16:02.851Z,5.33
2018-07-28T15:18:31.762Z,6.20
2018-07-28T15:20:58.972Z,5.90
2018-07-28T15:23:26.176Z,5.87
2018-07-28T15:25:53.397Z,6.43
2018-07-28T15:28:20.637Z,5.60
2018-07-28T15:30:47.802Z,6.40
2018-07-28T15:33:14.965Z,5.30
2018-07-28T15:35:42.221Z,5.90
2018-07-28T15:38:09.425Z,6.00
2018-07-28T15:40:36.627Z,6.43
2018-07-28T15:43:07.060Z,6.97
2018-07-28T15:45:34.668Z,6.23
2018-07-28T15:48:01.980Z,7.20
2018-07-28T15:50:29.233Z,7.23
2018-07-28T15:52:56.508Z,6.70
2018-07-28T15:55:23.761Z,6.70
2018-07-28T15:57:52.248Z,6.20
2018-07-28T16:00:19.567Z,6.40
2018-07-28T16:02:47.390Z,6.27
2018-07-28T16:05:14.681Z,6.50
2018-07-28T16:07:41.906Z,6.70
2018-07-28T16:10:09.110Z,5.97
2018-07-28T16:12:36.329Z,7.10
2018-07-28T16:15:04.145Z,6.50
2018-07-28T16:17:31.414Z,6.50
2018-07-28T16:19:58.590Z,6.00
2018-07-28T16:22:25.837Z,6.07
2018-07-28T16:24:53.013Z,6.60
2018-07-28T16:27:20.308Z,6.57
2018-07-28T16:29:47.536Z,6.40
2018-07-28T16:32:14.764Z,5.80
2018-07-28T16:34:41.961Z,6.13
2018-07-28T16:37:09.215Z,5.60
2018-07-28T16:39:36.474Z,6.00
2018-07-28T16:42:03.837Z,6.13
2018-07-28T16:44:31.068Z,6.77
2018-07-28T16:46:58.302Z,6.67
2018-07-28T16:49:25.563Z,5.97
2018-07-28T16:51:52.802Z,6.70
2018-07-28T16:54:20.081Z,5.93
2018-07-28T16:56:47.358Z,5.30
2018-07-28T16:59:14.629Z,7.13
2018-07-28T17:01:41.850Z,6.20
2018-07-28T17:04:09.097Z,6.90
2018-07-28T17:06:36.421Z,7.50
2018-07-28T17:09:06.486Z,6.07
2018-07-28T17:11:33.794Z,6.60
2018-07-28T17:14:01.077Z,7.10
2018-07-28T17:16:28.292Z,6.87
2018-07-28T17:18:55.493Z,6.40
2018-07-28T17:21:22.721Z,7.50
2018-07-28T17:23:50.000Z,6.03
2018-07-28T17:26:17.225Z,6.23
2018-07-28T17:28:44.472Z,6.47
2018-07-28T17:31:11.701Z,8.20
2018-07-28T17:33:38.915Z,7.13
2018-07-28T17:36:06.160Z,7.00
2018-07-28T17:38:33.540Z,6.60
2018-07-28T17:41:00.861Z,6.60
2018-07-28T17:43:28.021Z,5.67
2018-07-28T17:45:55.329Z,6.87
2018-07-28T17:48:22.597Z,6.13
2018-07-28T17:50:49.837Z,6.73
2018-07-28T17:53:17.109Z,6.87
2018-07-28T17:55:44.340Z,6.20
2018-07-28T17:58:11.599Z,6.50
2018-07-28T18:00:38.810Z,6.73
2018-07-28T18:03:06.010Z,6.93
2018-07-28T18:05:33.239Z,7.03
2018-07-28T18:08:00.419Z,6.77
2018-07-28T18:10:27.657Z,6.90
2018-07-28T18:12:54.865Z,7.53
2018-07-28T18:15:22.032Z,7.47
2018-07-28T18:17:49.315Z,7.60
2018-07-28T18:20:16.529Z,6.60
2018-07-28T18:22:43.778Z,6.53
2018-07-28T18:25:10.973Z,7.33
2018-07-28T18:27:38.190Z,6.67
2018-07-28T18:30:05.480Z,6.57
2018-07-28T18:32:32.711Z,8.10
2018-07-28T18:34:59.965Z,7.33
2018-07-28T18:37:27.233Z,6.80
2018-07-28T18:39:54.880Z,8.30
2018-07-28T18:42:22.057Z,7.10
2018-07-28T18:44:49.250Z,7.20
2018-07-28T18:47:16.468Z,7.87
2018-07-28T18:49:43.751Z,7.40
2018-07-28T18:52:11.226Z,6.80
2018-07-28T18:54:38.482Z,7.10
2018-07-28T18:57:05.730Z,7.53
2018-07-28T18:59:32.958Z,7.30
2018-07-28T19:02:00.226Z,7.63
2018-07-28T19:04:27.404Z,6.27
2018-07-28T19:06:54.646Z,7.10
2018-07-28T19:09:27.702Z,7.17
2018-07-28T19:11:55.571Z,6.70
2018-07-28T19:14:28.674Z,7.50
2018-07-28T19:16:55.872Z,7.40
2018-07-28T19:19:23.094Z,7.23
2018-07-28T19:21:50.322Z,7.60
2018-07-28T19:24:17.582Z,7.80
2018-07-28T19:26:44.817Z,8.00
2018-07-28T19:29:17.940Z,8.23
2018-07-28T19:31:45.317Z,7.97
2018-07-28T19:34:12.574Z,7.60
2018-07-28T19:36:45.600Z,7.67
2018-07-28T19:39:12.868Z,8.63
2018-07-28T19:42:50.062Z,9.17
2018-07-28T19:45:17.319Z,8.53
2018-07-28T19:47:44.640Z,7.53
2018-07-28T19:50:11.887Z,8.27
2018-07-28T19:52:39.211Z,8.13
2018-07-28T19:55:06.450Z,7.37
2018-07-28T19:57:33.783Z,7.30
2018-07-28T20:00:01.059Z,7.13
2018-07-28T20:02:28.354Z,8.67
2018-07-28T20:04:55.574Z,7.33
2018-07-28T20:07:22.785Z,7.60
2018-07-28T20:09:50.069Z,7.13
2018-07-28T20:12:17.269Z,8.63
2018-07-28T20:14:44.947Z,8.67
2018-07-28T20:17:12.125Z,8.50
2018-07-28T20:19:39.365Z,8.33
2018-07-28T20:22:06.610Z,9.20
2018-07-28T20:24:33.798Z,9.23
2018-07-28T20:27:01.074Z,8.03
2018-07-28T20:29:28.380Z,9.23
2018-07-28T20:31:55.598Z,8.20
2018-07-28T20:34:22.788Z,8.93
2018-07-28T20:36:50.059Z,9.57
2018-07-28T20:39:17.340Z,8.60
2018-07-28T20:41:44.572Z,8.30
2018-07-28T20:44:11.785Z,8.40
2018-07-28T20:46:39.035Z,8.10
2018-07-28T20:49:06.378Z,8.20
2018-07-28T20:51:33.586Z,8.40
2018-07-28T20:54:00.902Z,8.63
2018-07-28T20:56:28.050Z,6.70
2018-07-28T20:58:55.268Z,6.77
2018-07-28T21:01:22.578Z,6.70
2018-07-28T21:03:49.839Z,7.90
2018-07-28T21:06:17.102Z,7.40
2018-07-28T21:08:44.352Z,6.73
2018-07-28T21:11:11.549Z,5.90
2018-07-28T21:13:38.795Z,7.10
2018-07-28T21:16:06.045Z,6.60
2018-07-28T21:18:33.285Z,5.87
2018-07-28T21:21:00.504Z,6.20
2018-07-28T21:23:27.704Z,5.53
2018-07-28T21:25:54.957Z,5.87
2018-07-28T21:28:22.196Z,5.90
2018-07-28T21:30:49.436Z,4.73
2018-07-28T21:33:16.824Z,4.40
2018-07-28T21:35:44.030Z,5.70
2018-07-28T21:38:11.239Z,5.10
2018-07-28T21:40:38.542Z,5.30
2018-07-28T21:43:05.768Z,5.70
2018-07-28T21:45:33.021Z,5.20
2018-07-28T21:48:00.204Z,5.93
2018-07-28T21:50:27.517Z,4.63
2018-07-28T21:52:54.663Z,5.17
2018-07-28T21:55:21.968Z,4.90
2018-07-28T21:57:49.321Z,4.50
2018-07-28T22:00:16.540Z,4.33
2018-07-28T22:02:43.795Z,4.53
2018-07-28T22:05:10.995Z,4.80
2018-07-28T22:07:38.106Z,4.30
2018-07-28T22:10:05.357Z,3.40
2018-07-28T22:12:32.639Z,4.47
2018-07-28T22:14:59.816Z,4.37
2018-07-28T22:17:27.115Z,5.00
2018-07-28T22:19:54.315Z,4.27
2018-07-28T22:22:21.588Z,4.80
2018-07-28T22:24:48.900Z,5.10
2018-07-28T22:27:16.106Z,5.30
2018-07-28T22:30:14.778Z,4.47
2018-07-28T22:32:42.047Z,5.10
2018-07-28T22:35:09.486Z,5.10
2018-07-28T22:37:36.852Z,5.17
2018-07-28T22:40:04.184Z,4.60
2018-07-28T22:42:44.511Z,5.10
2018-07-28T22:45:11.688Z,3.87
2018-07-28T22:47:38.983Z,4.50
2018-07-28T22:50:06.728Z,4.60
2018-07-28T22:52:33.947Z,4.20
2018-07-28T22:55:01.143Z,3.70
2018-07-28T22:57:28.473Z,4.13
2018-07-28T22:59:55.717Z,4.40
2018-07-28T23:02:22.919Z,5.43
2018-07-28T23:04:50.220Z,4.73
2018-07-28T23:07:17.497Z,4.17
2018-07-28T23:09:44.682Z,4.90
2018-07-28T23:12:11.977Z,4.80
2018-07-28T23:14:39.186Z,4.50
2018-07-28T23:17:06.459Z,4.30
2018-07-28T23:19:33.764Z,5.00
2018-07-28T23:22:00.962Z,5.17
2018-07-28T23:24:28.178Z,4.80
2018-07-28T23:26:55.456Z,3.97
2018-07-28T23:29:22.639Z,4.33
2018-07-28T23:31:49.969Z,4.77
2018-07-28T23:34:17.226Z,4.30
2018-07-28T23:36:44.480Z,4.10
2018-07-28T23:39:11.673Z,4.90
2018-07-28T23:41:39.027Z,4.30
2018-07-28T23:44:06.288Z,4.17
2018-07-28T23:46:33.669Z,4.40
2018-07-28T23:49:00.863Z,4.10
2018-07-28T23:51:28.063Z,3.80
2018-07-28T23:53:55.291Z,4.40
2018-07-28T23:56:22.488Z,3.87
2018-07-28T23:58:49.757Z,4.30
